createdAt,value
2018-12-02T00:01:44.645Z,99687.34
2018-12-02T00:04:13.799Z,99686.56
2018-12-02T00:06:42.864Z,99677.86
2018-12-02T00:09:12.133Z,99677.80
2018-12-02T00:11:41.249Z,99676.01
2018-12-02T00:14:10.533Z,99678.23
2018-12-02T00:16:39.670Z,99665.16
2018-12-02T00:19:08.923Z,99667.35
2018-12-02T00:21:38.143Z,99664.40
2018-12-02T00:24:07.419Z,99657.59
2018-12-02T00:26:36.725Z,99654.22
2018-12-02T00:29:05.855Z,99661.42
2018-12-02T00:31:35.051Z,99660.15
2018-12-02T00:34:04.375Z,99663.06
2018-12-02T00:36:33.733Z,99656.38
2018-12-02T00:39:02.925Z,99651.30
2018-12-02T00:41:32.111Z,99653.06
2018-12-02T00:44:02.021Z,99649.11
2018-12-02T00:46:30.583Z,99637.32
2018-12-02T00:48:59.895Z,99639.05
2018-12-02T00:51:29.415Z,99624.34
2018-12-02T00:53:58.561Z,99632.36
2018-12-02T00:56:26.264Z,99618.89
2018-12-02T00:58:55.583Z,99618.64
2018-12-02T01:01:25.217Z,99614.11
2018-12-02T01:03:54.382Z,99614.44
2018-12-02T01:06:23.593Z,99603.85
2018-12-02T01:08:52.707Z,99602.81
2018-12-02T01:11:21.944Z,99602.30
2018-12-02T01:13:51.207Z,99599.67
2018-12-02T01:16:20.591Z,99586.52
2018-12-02T01:18:50.695Z,99586.52
2018-12-02T01:21:20.482Z,99577.39
2018-12-02T01:23:49.639Z,99572.34
2018-12-02T01:26:23.149Z,99573.08
2018-12-02T01:28:52.461Z,99564.64
2018-12-02T01:31:21.793Z,99564.53
2018-12-02T01:33:51.930Z,99547.87
2018-12-02T01:36:21.396Z,99555.90
2018-12-02T01:38:50.663Z,99552.44
2018-12-02T01:41:19.981Z,99540.44
2018-12-02T01:43:49.355Z,99531.97
2018-12-02T01:46:18.576Z,99539.20
2018-12-02T01:48:47.704Z,99536.53
2018-12-02T01:51:17.660Z,99526.66
2018-12-02T01:53:46.928Z,99521.45
2018-12-02T01:56:16.297Z,99519.88
2018-12-02T01:58:45.556Z,99516.45
2018-12-02T02:01:14.645Z,99515.95
2018-12-02T02:03:44.033Z,99511.89
2018-12-02T02:06:13.103Z,99505.55
2018-12-02T02:08:42.222Z,99498.34
2018-12-02T02:11:11.497Z,99497.52
2018-12-02T02:13:40.702Z,99496.19
2018-12-02T02:16:09.892Z,99497.22
2018-12-02T02:18:39.183Z,99486.56
2018-12-02T02:21:08.393Z,99478.58
2018-12-02T02:23:37.552Z,99476.41
2018-12-02T02:26:06.947Z,99474.86
2018-12-02T02:28:36.126Z,99463.12
2018-12-02T02:31:06.470Z,99456.17
2018-12-02T02:33:35.594Z,99455.83
2018-12-02T02:36:04.653Z,99453.75
2018-12-02T02:38:33.794Z,99450.52
2018-12-02T02:41:03.038Z,99448.66
2018-12-02T02:43:32.269Z,99443.04
2018-12-02T02:46:01.931Z,99429.92
2018-12-02T02:48:31.046Z,99445.16
2018-12-02T02:51:00.214Z,99439.07
2018-12-02T02:53:29.453Z,99434.58
2018-12-02T02:55:58.666Z,99434.02
2018-12-02T02:58:27.862Z,99421.67
2018-12-02T03:00:57.122Z,99423.30
2018-12-02T03:03:26.438Z,99416.53
2018-12-02T03:05:55.673Z,99406.72
2018-12-02T03:08:24.818Z,99405.13
2018-12-02T03:10:54.056Z,99414.80
2018-12-02T03:13:23.277Z,99403.75
2018-12-02T03:15:52.556Z,99402.80
2018-12-02T03:18:21.634Z,99403.19
2018-12-02T03:20:50.853Z,99405.81
2018-12-02T03:23:20.303Z,99393.99
2018-12-02T03:25:50.696Z,99407.42
2018-12-02T03:28:19.811Z,99405.56
2018-12-02T03:30:48.969Z,99408.28
2018-12-02T03:33:18.149Z,99410.58
2018-12-02T03:35:47.575Z,99406.42
2018-12-02T03:38:16.763Z,99405.64
2018-12-02T03:40:46.026Z,99399.54
2018-12-02T03:43:15.209Z,99396.88
2018-12-02T03:45:44.215Z,99393.59
2018-12-02T03:48:13.494Z,99387.62
2018-12-02T03:50:42.689Z,99380.80
2018-12-02T03:53:11.829Z,99384.03
2018-12-02T03:55:40.904Z,99382.03
2018-12-02T03:58:10.053Z,99374.47
2018-12-02T04:00:39.290Z,99381.41
2018-12-02T04:03:08.422Z,99376.37
2018-12-02T04:05:37.547Z,99371.95
2018-12-02T04:08:07.418Z,99369.01
2018-12-02T04:10:36.542Z,99357.25
2018-12-02T04:13:05.682Z,99347.38
2018-12-02T04:15:34.849Z,99345.12
2018-12-02T04:18:03.857Z,99344.30
2018-12-02T04:20:33.479Z,99332.52
2018-12-02T04:23:02.931Z,99336.42
2018-12-02T04:25:32.396Z,99326.30
2018-12-02T04:28:01.562Z,99321.26
2018-12-02T04:30:31.008Z,99318.75
2018-12-02T04:33:00.771Z,99310.00
2018-12-02T04:35:30.161Z,99312.67
2018-12-02T04:37:59.604Z,99306.45
2018-12-02T04:40:28.679Z,99299.67
2018-12-02T04:42:58.143Z,99299.47
2018-12-02T04:45:27.173Z,99295.36
2018-12-02T04:47:56.526Z,99300.19
2018-12-02T04:50:25.958Z,99293.72
2018-12-02T04:52:55.000Z,99290.73
2018-12-02T04:55:24.269Z,99287.55
2018-12-02T04:57:53.247Z,99286.01
2018-12-02T05:00:22.342Z,99284.37
2018-12-02T05:02:52.915Z,99278.30
2018-12-02T05:05:24.074Z,99274.28
2018-12-02T05:07:53.526Z,99283.09
2018-12-02T05:10:22.816Z,99271.41
2018-12-02T05:12:52.466Z,99271.14
2018-12-02T05:15:23.105Z,99270.37
2018-12-02T05:17:52.498Z,99264.98
2018-12-02T05:20:23.417Z,99261.48
2018-12-02T05:22:52.550Z,99256.45
2018-12-02T05:25:21.681Z,99254.30
2018-12-02T05:27:51.081Z,99250.43
2018-12-02T05:30:22.368Z,99250.03
2018-12-02T05:32:52.464Z,99248.13
2018-12-02T05:35:22.073Z,99243.35
2018-12-02T05:37:51.095Z,99235.80
2018-12-02T05:40:24.267Z,99235.91
2018-12-02T05:42:54.174Z,99230.86
2018-12-02T05:45:24.624Z,99234.30
2018-12-02T05:47:53.887Z,99230.55
2018-12-02T05:50:26.608Z,99230.09
2018-12-02T05:52:57.770Z,99224.17
2018-12-02T05:55:28.062Z,99228.95
2018-12-02T05:57:57.307Z,99226.80
2018-12-02T06:00:26.421Z,99224.64
2018-12-02T06:02:57.456Z,99223.04
2018-12-02T06:05:26.496Z,99215.59
2018-12-02T06:07:56.102Z,99203.83
2018-12-02T06:10:25.138Z,99214.25
2018-12-02T06:12:54.221Z,99206.85
2018-12-02T06:15:23.297Z,99201.98
2018-12-02T06:17:52.614Z,99195.44
2018-12-02T06:20:23.738Z,99193.23
2018-12-02T06:22:54.738Z,99182.23
2018-12-02T06:25:23.762Z,99182.19
2018-12-02T06:27:52.892Z,99174.22
2018-12-02T06:30:24.097Z,99172.45
2018-12-02T06:32:55.427Z,99176.68
2018-12-02T06:35:24.444Z,99180.13
2018-12-02T06:37:55.074Z,99172.92
2018-12-02T06:40:28.635Z,99171.86
2018-12-02T06:42:57.819Z,99168.91
2018-12-02T06:45:26.897Z,99167.84
2018-12-02T06:47:56.064Z,99166.81
2018-12-02T06:50:26.450Z,99174.30
2018-12-02T06:52:56.519Z,99162.33
2018-12-02T06:55:28.322Z,99163.41
2018-12-02T06:58:01.419Z,99166.03
2018-12-02T07:00:40.559Z,99159.44
2018-12-02T07:03:20.030Z,99159.96
2018-12-02T07:05:49.997Z,99169.91
2018-12-02T07:08:19.134Z,99159.44
2018-12-02T07:10:48.181Z,99158.67
2018-12-02T07:13:17.290Z,99152.28
2018-12-02T07:15:46.744Z,99151.98
2018-12-02T07:18:18.908Z,99142.63
2018-12-02T07:20:47.981Z,99144.35
2018-12-02T07:23:17.209Z,99140.64
2018-12-02T07:25:46.413Z,99126.67
2018-12-02T07:28:15.807Z,99129.73
2018-12-02T07:30:44.765Z,99126.77
2018-12-02T07:33:14.316Z,99134.22
2018-12-02T07:35:43.611Z,99130.25
2018-12-02T07:38:18.309Z,99125.98
2018-12-02T07:40:47.327Z,99127.92
2018-12-02T07:43:16.441Z,99121.45
2018-12-02T07:45:45.939Z,99119.42
2018-12-02T07:48:15.105Z,99119.16
2018-12-02T07:50:44.232Z,99118.13
2018-12-02T07:53:13.580Z,99117.30
2018-12-02T07:55:42.694Z,99110.70
2018-12-02T07:58:16.242Z,99122.73
2018-12-02T08:00:46.088Z,99111.73
2018-12-02T08:03:15.349Z,99105.14
2018-12-02T08:05:44.294Z,99099.60
2018-12-02T08:08:13.469Z,99101.50
2018-12-02T08:10:43.037Z,99094.03
2018-12-02T08:13:12.166Z,99083.11
2018-12-02T08:15:41.109Z,99088.20
2018-12-02T08:18:11.003Z,99082.30
2018-12-02T08:20:40.373Z,99085.79
2018-12-02T08:23:09.393Z,99085.79
2018-12-02T08:25:39.105Z,99089.61
2018-12-02T08:28:08.049Z,99070.59
2018-12-02T08:30:37.651Z,99079.77
2018-12-02T08:33:06.658Z,99086.45
2018-12-02T08:35:35.649Z,99079.28
2018-12-02T08:38:08.451Z,99080.10
2018-12-02T08:40:37.730Z,99083.37
2018-12-02T08:43:07.885Z,99083.33
2018-12-02T08:45:38.013Z,99078.83
2018-12-02T08:48:06.222Z,99083.70
2018-12-02T08:50:35.265Z,99087.19
2018-12-02T08:53:04.631Z,99082.88
2018-12-02T08:55:33.720Z,99075.19
2018-12-02T08:58:03.027Z,99073.88
2018-12-02T09:00:32.432Z,99068.79
2018-12-02T09:03:03.884Z,99064.31
2018-12-02T09:05:32.913Z,99068.59
2018-12-02T09:08:02.183Z,99057.37
2018-12-02T09:10:32.657Z,99059.33
2018-12-02T09:13:04.168Z,99069.47
2018-12-02T09:15:33.148Z,99065.49
2018-12-02T09:18:02.633Z,99070.87
2018-12-02T09:20:33.586Z,99062.06
2018-12-02T09:23:02.525Z,99063.95
2018-12-02T09:25:32.179Z,99060.33
2018-12-02T09:28:01.280Z,99059.25
2018-12-02T09:30:31.765Z,99061.99
2018-12-02T09:33:01.229Z,99066.53
2018-12-02T09:35:30.600Z,99068.16
2018-12-02T09:37:59.489Z,99064.96
2018-12-02T09:40:28.973Z,99058.82
2018-12-02T09:42:58.113Z,99057.25
2018-12-02T09:45:29.113Z,99058.88
2018-12-02T09:47:59.600Z,99060.02
2018-12-02T09:50:28.883Z,99047.70
2018-12-02T09:52:58.238Z,99050.17
2018-12-02T09:55:30.548Z,99049.68
2018-12-02T09:57:59.850Z,99051.07
2018-12-02T10:00:33.928Z,99050.86
2018-12-02T10:02:59.227Z,99052.52
2018-12-02T10:05:28.477Z,99045.61
2018-12-02T10:07:57.750Z,99043.27
2018-12-02T10:10:27.229Z,99054.08
2018-12-02T10:13:01.216Z,99043.94
2018-12-02T10:15:30.129Z,99044.80
2018-12-02T10:18:00.027Z,99040.54
2018-12-02T10:20:29.214Z,99040.63
2018-12-02T10:22:58.634Z,99043.06
2018-12-02T10:25:27.680Z,99041.21
2018-12-02T10:27:57.030Z,99034.64
2018-12-02T10:30:26.522Z,99035.19
2018-12-02T10:32:57.278Z,99036.84
2018-12-02T10:35:26.415Z,99031.19
2018-12-02T10:37:56.113Z,99030.39
2018-12-02T10:40:25.988Z,99038.25
2018-12-02T10:42:55.433Z,99031.25
2018-12-02T10:45:26.333Z,99033.48
2018-12-02T10:47:59.633Z,99024.10
2018-12-02T10:50:30.661Z,99017.36
2018-12-02T10:53:01.961Z,99025.47
2018-12-02T10:55:45.290Z,99025.98
2018-12-02T10:58:19.770Z,99034.06
2018-12-02T11:00:54.408Z,99027.66
2018-12-02T11:03:23.692Z,99024.45
2018-12-02T11:05:52.960Z,99030.58
2018-12-02T11:08:22.329Z,99028.98
2018-12-02T11:10:51.276Z,99022.08
2018-12-02T11:13:20.557Z,99017.84
2018-12-02T11:15:49.707Z,99021.89
2018-12-02T11:18:19.145Z,99020.00
2018-12-02T11:20:48.510Z,99016.25
2018-12-02T11:23:17.910Z,99023.23
2018-12-02T11:25:47.004Z,99022.14
2018-12-02T11:28:16.030Z,99017.08
2018-12-02T11:30:45.108Z,99022.70
2018-12-02T11:33:14.188Z,99020.86
2018-12-02T11:35:45.021Z,99018.44
2018-12-02T11:38:14.319Z,99020.05
2018-12-02T11:40:43.622Z,99018.17
2018-12-02T11:43:12.857Z,99018.96
2018-12-02T11:45:42.082Z,99019.26
2018-12-02T11:48:11.111Z,99026.23
2018-12-02T11:50:40.566Z,99027.07
2018-12-02T11:53:09.785Z,99023.33
2018-12-02T11:55:38.836Z,99019.82
2018-12-02T11:58:08.882Z,99020.37
2018-12-02T12:00:39.556Z,99025.23
2018-12-02T12:03:08.701Z,99027.88
2018-12-02T12:05:38.689Z,99030.31
2018-12-02T12:08:12.008Z,99027.38
2018-12-02T12:10:41.006Z,99023.89
2018-12-02T12:13:10.196Z,99023.60
2018-12-02T12:15:39.305Z,99020.39
2018-12-02T12:18:10.249Z,99028.16
2018-12-02T12:20:41.386Z,99024.96
2018-12-02T12:23:12.113Z,99018.28
2018-12-02T12:25:41.087Z,99020.98
2018-12-02T12:28:15.216Z,99016.72
2018-12-02T12:30:44.561Z,99024.23
2018-12-02T12:33:13.452Z,99022.38
2018-12-02T12:35:44.226Z,99023.50
2018-12-02T12:38:13.173Z,99025.61
2018-12-02T12:40:43.049Z,99032.34
2018-12-02T12:43:34.617Z,99034.81
2018-12-02T12:46:04.550Z,99038.03
2018-12-02T12:48:46.536Z,99038.03
2018-12-02T12:51:15.898Z,99034.56
2018-12-02T12:53:45.204Z,99034.56
2018-12-02T12:56:14.525Z,99037.01
2018-12-02T12:58:50.713Z,99032.69
2018-12-02T13:01:19.938Z,99030.00
2018-12-02T13:03:49.354Z,99032.43
2018-12-02T13:06:18.663Z,99036.72
2018-12-02T13:08:48.953Z,99039.69
2018-12-02T13:11:18.096Z,99038.06
2018-12-02T13:13:47.421Z,99035.38
2018-12-02T13:16:16.441Z,99043.72
2018-12-02T13:18:53.028Z,99040.74
2018-12-02T13:21:22.686Z,99037.52
2018-12-02T13:23:51.774Z,99042.90
2018-12-02T13:26:21.073Z,99043.95
2018-12-02T13:28:50.098Z,99049.08
2018-12-02T13:31:19.307Z,99049.07
2018-12-02T13:33:48.278Z,99057.69
2018-12-02T13:36:17.593Z,99059.31
2018-12-02T13:39:03.063Z,99067.39
2018-12-02T13:41:31.979Z,99070.09
2018-12-02T13:44:01.158Z,99073.84
2018-12-02T13:46:30.532Z,99079.23
2018-12-02T13:49:00.595Z,99077.34
2018-12-02T13:51:29.579Z,99078.95
2018-12-02T13:54:03.510Z,99081.39
2018-12-02T13:56:32.737Z,99083.80
2018-12-02T13:59:03.031Z,99092.16
2018-12-02T14:01:32.164Z,99105.87
2018-12-02T14:04:02.964Z,99100.77
2018-12-02T14:06:31.893Z,99100.23
2018-12-02T14:09:02.057Z,99102.64
2018-12-02T14:11:31.087Z,99102.39
2018-12-02T14:14:01.105Z,99101.30
2018-12-02T14:16:34.096Z,99099.70
2018-12-02T14:19:18.341Z,99106.96
2018-12-02T14:21:47.466Z,99117.20
2018-12-02T14:24:16.586Z,99115.84
2018-12-02T14:26:46.487Z,99120.66
2018-12-02T14:29:18.305Z,99120.66
2018-12-02T14:31:59.660Z,99123.64
2018-12-02T14:34:28.703Z,99117.72
2018-12-02T14:36:57.674Z,99134.12
2018-12-02T14:39:30.629Z,99137.36
2018-12-02T14:41:59.911Z,99142.18
2018-12-02T14:44:29.684Z,99144.09
2018-12-02T14:46:59.015Z,99149.20
2018-12-02T14:49:35.803Z,99145.45
2018-12-02T14:52:04.890Z,99146.52
2018-12-02T14:54:34.351Z,99151.36
2018-12-02T14:57:03.726Z,99149.21
2018-12-02T14:59:40.352Z,99138.44
2018-12-02T15:02:09.390Z,99157.26
2018-12-02T15:04:38.323Z,99165.61
2018-12-02T15:07:07.598Z,99158.89
2018-12-02T15:09:38.679Z,99164.27
2018-12-02T15:12:07.754Z,99162.94
2018-12-02T15:14:37.071Z,99162.11
2018-12-02T15:17:06.054Z,99168.31
2018-12-02T15:19:36.427Z,99166.40
2018-12-02T15:22:05.656Z,99169.10
2018-12-02T15:24:34.746Z,99169.08
2018-12-02T15:27:03.933Z,99172.59
2018-12-02T15:29:33.281Z,99173.92
2018-12-02T15:32:02.627Z,99177.70
2018-12-02T15:34:31.830Z,99187.91
2018-12-02T15:37:05.482Z,99184.14
2018-12-02T15:39:39.254Z,99188.41
2018-12-02T15:42:08.595Z,99183.86
2018-12-02T15:44:37.617Z,99192.49
2018-12-02T15:47:06.953Z,99191.67
2018-12-02T15:49:37.127Z,99190.80
2018-12-02T15:52:11.328Z,99190.50
2018-12-02T15:54:41.464Z,99192.95
2018-12-02T15:57:10.163Z,99198.34
2018-12-02T15:59:47.094Z,99193.46
2018-12-02T16:02:16.346Z,99215.28
2018-12-02T16:04:46.482Z,99209.61
2018-12-02T16:07:15.894Z,99210.67
2018-12-02T16:09:45.222Z,99213.09
2018-12-02T16:12:14.951Z,99211.17
2018-12-02T16:14:44.039Z,99211.47
2018-12-02T16:17:13.165Z,99212.78
2018-12-02T16:19:43.638Z,99215.47
2018-12-02T16:22:12.865Z,99214.65
2018-12-02T16:24:42.434Z,99217.38
2018-12-02T16:27:11.770Z,99205.31
2018-12-02T16:29:40.955Z,99213.67
2018-12-02T16:32:10.521Z,99217.19
2018-12-02T16:34:39.773Z,99219.85
2018-12-02T16:37:09.054Z,99220.66
2018-12-02T16:39:38.241Z,99215.56
2018-12-02T16:42:07.357Z,99211.05
2018-12-02T16:44:36.613Z,99215.91
2018-12-02T16:47:06.782Z,99215.89
2018-12-02T16:49:35.875Z,99218.60
2018-12-02T16:52:05.061Z,99227.18
2018-12-02T16:54:34.252Z,99211.27
2018-12-02T16:57:05.389Z,99225.47
2018-12-02T16:59:36.618Z,99228.16
2018-12-02T17:02:09.165Z,99221.92
2018-12-02T17:04:38.465Z,99216.82
2018-12-02T17:07:07.758Z,99218.97
2018-12-02T17:09:37.166Z,99220.02
2018-12-02T17:12:06.583Z,99229.70
2018-12-02T17:14:38.706Z,99231.05
2018-12-02T17:17:05.477Z,99229.11
2018-12-02T17:19:34.702Z,99233.40
2018-12-02T17:22:03.966Z,99235.57
2018-12-02T17:24:34.535Z,99232.33
2018-12-02T17:27:03.818Z,99238.24
2018-12-02T17:29:33.177Z,99238.77
2018-12-02T17:32:07.629Z,99235.55
2018-12-02T17:34:37.003Z,99229.33
2018-12-02T17:37:06.510Z,99241.96
2018-12-02T17:39:38.845Z,99238.76
2018-12-02T17:42:10.006Z,99243.61
2018-12-02T17:44:39.333Z,99239.29
2018-12-02T17:47:08.982Z,99242.79
2018-12-02T17:49:38.429Z,99239.27
2018-12-02T17:52:08.746Z,99238.20
2018-12-02T17:54:38.170Z,99234.41
2018-12-02T17:57:07.583Z,99233.00
2018-12-02T17:59:37.093Z,99235.62
2018-12-02T18:02:06.999Z,99239.91
2018-12-02T18:04:36.413Z,99238.56
2018-12-02T18:07:06.371Z,99239.46
2018-12-02T18:09:35.787Z,99240.29
2018-12-02T18:12:05.125Z,99243.84
2018-12-02T18:14:36.709Z,99237.14
2018-12-02T18:17:06.189Z,99234.22
2018-12-02T18:19:38.790Z,99236.42
2018-12-02T18:22:08.214Z,99235.06
2018-12-02T18:24:37.747Z,99235.33
2018-12-02T18:27:07.232Z,99239.34
2018-12-02T18:29:36.781Z,99232.62
2018-12-02T18:32:06.398Z,99237.26
2018-12-02T18:34:36.618Z,99244.51
2018-12-02T18:37:07.940Z,99250.17
2018-12-02T18:39:37.351Z,99246.39
2018-12-02T18:42:08.157Z,99243.68
2018-12-02T18:44:37.617Z,99246.34
2018-12-02T18:47:07.199Z,99254.41
2018-12-02T18:49:36.733Z,99259.52
2018-12-02T18:52:07.549Z,99256.84
2018-12-02T18:54:36.971Z,99259.55
2018-12-02T18:57:06.981Z,99258.17
2018-12-02T18:59:36.473Z,99265.97
2018-12-02T19:02:06.705Z,99261.63
2018-12-02T19:04:36.293Z,99258.45
2018-12-02T19:07:05.733Z,99264.08
2018-12-02T19:09:35.207Z,99275.36
2018-12-02T19:12:04.749Z,99276.22
2018-12-02T19:14:34.323Z,99271.34
2018-12-02T19:17:04.321Z,99280.49
2018-12-02T19:19:33.749Z,99276.69
2018-12-02T19:22:03.543Z,99284.95
2018-12-02T19:24:33.033Z,99273.98
2018-12-02T19:27:02.605Z,99284.16
2018-12-02T19:29:32.081Z,99277.70
2018-12-02T19:32:01.521Z,99279.00
2018-12-02T19:34:31.010Z,99284.68
2018-12-02T19:37:03.486Z,99284.92
2018-12-02T19:39:33.426Z,99286.55
2018-12-02T19:42:02.866Z,99288.70
2018-12-02T19:44:32.339Z,99291.64
2018-12-02T19:47:01.798Z,99289.80
2018-12-02T19:49:31.250Z,99287.97
2018-12-02T19:52:00.754Z,99292.00
2018-12-02T19:54:30.080Z,99289.84
2018-12-02T19:56:59.468Z,99284.45
2018-12-02T19:59:29.673Z,99282.58
2018-12-02T20:01:59.146Z,99287.98
2018-12-02T20:04:28.526Z,99286.98
2018-12-02T20:06:57.990Z,99279.44
2018-12-02T20:09:28.094Z,99276.48
2018-12-02T20:11:57.537Z,99283.77
2018-12-02T20:14:26.914Z,99274.88
2018-12-02T20:16:56.593Z,99285.05
2018-12-02T20:19:31.000Z,99284.80
2018-12-02T20:22:00.454Z,99280.77
2018-12-02T20:24:34.935Z,99281.64
2018-12-02T20:27:04.435Z,99276.48
2018-12-02T20:29:33.943Z,99279.97
2018-12-02T20:32:03.371Z,99275.66
2018-12-02T20:34:32.691Z,99275.13
2018-12-02T20:37:02.138Z,99278.66
2018-12-02T20:39:32.273Z,99274.09
2018-12-02T20:42:01.675Z,99275.43
2018-12-02T20:44:31.069Z,99268.91
2018-12-02T20:47:00.526Z,99274.55
2018-12-02T20:49:30.004Z,99267.58
2018-12-02T20:51:59.363Z,99260.62
2018-12-02T20:54:28.853Z,99261.42
2018-12-02T20:56:58.570Z,99271.66
2018-12-02T20:59:28.124Z,99266.83
2018-12-02T21:01:57.549Z,99268.73
2018-12-02T21:04:27.512Z,99266.30
2018-12-02T21:06:56.934Z,99260.41
2018-12-02T21:09:26.429Z,99260.42
2018-12-02T21:11:55.824Z,99268.78
2018-12-02T21:14:25.174Z,99268.48
2018-12-02T21:16:54.978Z,99268.22
2018-12-02T21:19:24.398Z,99270.08
2018-12-02T21:21:53.862Z,99265.72
2018-12-02T21:24:23.227Z,99266.80
2018-12-02T21:26:52.726Z,99263.05
2018-12-02T21:29:21.970Z,99261.94
2018-12-02T21:31:51.327Z,99264.03
2018-12-02T21:34:20.629Z,99249.47
2018-12-02T21:36:49.924Z,99249.44
2018-12-02T21:39:19.296Z,99246.27
2018-12-02T21:41:48.653Z,99251.93
2018-12-02T21:44:17.898Z,99251.95
2018-12-02T21:46:47.145Z,99248.70
2018-12-02T21:49:16.194Z,99249.56
2018-12-02T21:51:45.185Z,99243.12
2018-12-02T21:54:14.365Z,99241.46
2018-12-02T21:56:43.711Z,99250.06
2018-12-02T21:59:12.981Z,99250.05
2018-12-02T22:01:41.945Z,99246.84
2018-12-02T22:04:11.009Z,99243.34
2018-12-02T22:06:40.254Z,99243.88
2018-12-02T22:09:09.533Z,99241.95
2018-12-02T22:11:38.784Z,99244.38
2018-12-02T22:14:08.012Z,99239.50
2018-12-02T22:16:37.033Z,99240.55
2018-12-02T22:19:06.257Z,99237.06
2018-12-02T22:21:36.418Z,99237.06
2018-12-02T22:24:05.434Z,99238.67
2018-12-02T22:26:34.779Z,99232.20
2018-12-02T22:29:03.850Z,99241.60
2018-12-02T22:31:32.873Z,99245.71
2018-12-02T22:34:02.001Z,99256.24
2018-12-02T22:36:31.129Z,99251.95
2018-12-02T22:39:00.075Z,99247.37
2018-12-02T22:41:29.164Z,99248.98
2018-12-02T22:43:58.149Z,99241.70
2018-12-02T22:46:27.286Z,99237.92
2018-12-02T22:48:56.228Z,99231.19
2018-12-02T22:51:25.240Z,99236.83
2018-12-02T22:53:54.269Z,99236.00
2018-12-02T22:56:23.297Z,99240.86
2018-12-02T22:58:52.273Z,99231.16
2018-12-02T23:01:26.510Z,99233.11
2018-12-02T23:03:55.583Z,99243.59
2018-12-02T23:06:24.585Z,99232.56
2018-12-02T23:08:53.479Z,99239.84
2018-12-02T23:11:22.559Z,99231.74
2018-12-02T23:13:51.611Z,99231.97
2018-12-02T23:16:20.670Z,99230.40
2018-12-02T23:18:49.834Z,99228.48
2018-12-02T23:21:22.285Z,99229.55
2018-12-02T23:23:51.267Z,99235.45
2018-12-02T23:26:20.305Z,99230.59
2018-12-02T23:28:49.281Z,99234.95
2018-12-02T23:31:21.963Z,99229.57
2018-12-02T23:33:51.268Z,99232.27
2018-12-02T23:36:20.301Z,99237.92
2018-12-02T23:38:49.241Z,99237.91
2018-12-02T23:41:18.390Z,99238.98
2018-12-02T23:43:47.486Z,99234.14
2018-12-02T23:46:16.450Z,99236.03
2018-12-02T23:48:45.679Z,99233.34
2018-12-02T23:51:14.746Z,99225.82
2018-12-02T23:53:43.908Z,99230.45
2018-12-02T23:56:13.764Z,99213.73
2018-12-02T23:58:42.797Z,99214.33
